Hebei Shijiazhuang — VRIS2 — position and weather

sailwx.info

Track history (hours):
 
Tides and Currents Weather Stations Pressure Air Temp Water Temp Dewpoint Dewpoint Depression Visibility Wind Speed Wind Dir Waves Ship Positions

Hebei Shijiazhuang

Last reported at 2017-Jan-12 10:18 UTC. Time now 2017-Feb-20 22:36 UTC.
Position S 23°35' E 154°10'.
Warning: this ship's position is 39 days out of date.

Length 235 m.

Type: Cargo ship. MMSI: 477899000.

Date/timePositionNaut miles runAvg speedWind from/ knotsBaromVisibWave heightAir tempDewpointWater temp
2017-Jan-12 10:18S 23°35' E 154°10'14511.4
2017-Jan-11 21:33S 26°00' E 154°10'1110.7
2017-Jan-11 20:33S 26°11' E 154°10'1010.3
2017-Jan-11 19:32S 26°22' E 154°10'1010.1
2017-Jan-11 18:33S 26°31' E 154°10'1010.0
2017-Jan-11 17:33S 26°41' E 154°10'1010.0
2017-Jan-11 16:32S 26°52' E 154°10'2110.0
2017-Jan-11 14:28S 27°12' E 154°10'1910.0
2017-Jan-11 12:32S 27°32' E 154°10'10 9.9
2017-Jan-11 11:33S 27°41' E 154°10'10 9.8
2017-Jan-11 10:31S 27°51' E 154°10'9 9.8
2017-Jan-11 09:33S 28°01' E 154°09'10 9.7
2017-Jan-11 08:33S 28°11' E 154°09'28 9.3
2017-Jan-11 05:33S 28°38' E 154°02'146 8.1
2017-Jan-10 11:27S 30°59' E 153°19'7 7.5
2017-Jan-10 10:27S 31°06' E 153°16'7 7.9
2017-Jan-10 09:33S 31°13' E 153°14'9 8.7
2017-Jan-10 08:33S 31°21' E 153°12'9 9.5
2017-Jan-10 07:33S 31°31' E 153°09'10 9.7
2017-Jan-10 06:33S 31°40' E 153°05'1110.6
2017-Jan-10 05:33S 31°49' E 152°60'1210.7
2017-Jan-10 04:28S 32°00' E 152°55'4210.8
2017-Jan-10 00:33S 32°37' E 152°31'1212.2
2017-Jan-09 23:33S 32°46' E 152°21'1212.3
2017-Jan-09 22:33S 32°55' E 152°11'1111.3
2017-Jan-09 21:33S 32°58' E 151°58'9 8.6
2017-Jan-09 20:33S 32°55' E 151°48'2 2.4
2017-Jan-09 19:33S 32°53' E 151°46'0 0.0
2017-Jan-09 18:28S 32°53' E 151°46'0 0.0
2017-Jan-09 17:31S 32°53' E 151°46'0 0.0
2017-Jan-09 16:31S 32°53' E 151°46'0 0.0
2017-Jan-09 15:31S 32°53' E 151°46'0 0.0
2017-Jan-09 14:31S 32°53' E 151°46'0 0.0
2017-Jan-09 13:31S 32°53' E 151°46'0 0.0
2017-Jan-09 12:25S 32°53' E 151°46'0 0.0
2017-Jan-09 11:28S 32°53' E 151°46'0 0.0
2017-Jan-09 10:31S 32°53' E 151°46'0 0.0
2017-Jan-09 09:31S 32°53' E 151°46'0 0.0
2017-Jan-09 08:31S 32°53' E 151°46'0 0.0
2017-Jan-09 07:31S 32°53' E 151°46'0 0.0
2017-Jan-09 06:31S 32°53' E 151°46'0 0.0
2017-Jan-09 05:31S 32°53' E 151°46'0 0.0
2017-Jan-09 04:31S 32°53' E 151°46'0 0.0
2017-Jan-09 03:31S 32°53' E 151°46'0 0.0
2017-Jan-09 02:31S 32°53' E 151°46'0 0.0
2017-Jan-09 01:31S 32°53' E 151°46'0 0.0
2017-Jan-09 00:31S 32°53' E 151°46'0 0.1
2017-Jan-08 23:33S 32°53' E 151°46'4 4.1
2017-Jan-08 22:33S 32°56' E 151°50'8 8.3
2017-Jan-08 21:33S 33°04' E 151°51'2 2.1
2017-Jan-08 20:33S 33°02' E 151°53'2 2.0
2017-Jan-08 19:33S 33°01' E 151°55'6 5.9
2017-Jan-08 18:33S 32°58' E 152°01'1111.3
2017-Jan-08 17:33S 32°53' E 152°13'8 7.5
2017-Jan-08 16:33S 32°48' E 152°20'1313.2
2017-Jan-08 15:34S 32°39' E 152°31'1413.9
2017-Jan-08 14:33S 32°28' E 152°41'  
Track history (hours):
 
Tides and Currents Weather Stations Pressure Air Temp Water Temp Dewpoint Dewpoint Depression Visibility Wind Speed Wind Dir Waves Ship Positions

Hebei Shijiazhuang

Last reported at 2017-Jan-12 10:18 UTC. Time now 2017-Feb-20 22:36 UTC.
Position S 23°35' E 154°10'.
Warning: this ship's position is 39 days out of date.

Length 235 m.

Type: Cargo ship. MMSI: 477899000.

Date/timePositionNaut miles runAvg speedWind from/ knotsBaromVisibWave heightAir tempDewpointWater temp
2017-Jan-12 10:18S 23°35' E 154°10'14511.4
2017-Jan-11 21:33S 26°00' E 154°10'1110.7
2017-Jan-11 20:33S 26°11' E 154°10'1010.3
2017-Jan-11 19:32S 26°22' E 154°10'1010.1
2017-Jan-11 18:33S 26°31' E 154°10'1010.0
2017-Jan-11 17:33S 26°41' E 154°10'1010.0
2017-Jan-11 16:32S 26°52' E 154°10'2110.0
2017-Jan-11 14:28S 27°12' E 154°10'1910.0
2017-Jan-11 12:32S 27°32' E 154°10'10 9.9
2017-Jan-11 11:33S 27°41' E 154°10'10 9.8
2017-Jan-11 10:31S 27°51' E 154°10'9 9.8
2017-Jan-11 09:33S 28°01' E 154°09'10 9.7
2017-Jan-11 08:33S 28°11' E 154°09'28 9.3
2017-Jan-11 05:33S 28°38' E 154°02'146 8.1
2017-Jan-10 11:27S 30°59' E 153°19'7 7.5
2017-Jan-10 10:27S 31°06' E 153°16'7 7.9
2017-Jan-10 09:33S 31°13' E 153°14'9 8.7
2017-Jan-10 08:33S 31°21' E 153°12'9 9.5
2017-Jan-10 07:33S 31°31' E 153°09'10 9.7
2017-Jan-10 06:33S 31°40' E 153°05'1110.6
2017-Jan-10 05:33S 31°49' E 152°60'1210.7
2017-Jan-10 04:28S 32°00' E 152°55'4210.8
2017-Jan-10 00:33S 32°37' E 152°31'1212.2
2017-Jan-09 23:33S 32°46' E 152°21'1212.3
2017-Jan-09 22:33S 32°55' E 152°11'1111.3
2017-Jan-09 21:33S 32°58' E 151°58'9 8.6
2017-Jan-09 20:33S 32°55' E 151°48'2 2.4
2017-Jan-09 19:33S 32°53' E 151°46'0 0.0
2017-Jan-09 18:28S 32°53' E 151°46'0 0.0
2017-Jan-09 17:31S 32°53' E 151°46'0 0.0
2017-Jan-09 16:31S 32°53' E 151°46'0 0.0
2017-Jan-09 15:31S 32°53' E 151°46'0 0.0
2017-Jan-09 14:31S 32°53' E 151°46'0 0.0
2017-Jan-09 13:31S 32°53' E 151°46'0 0.0
2017-Jan-09 12:25S 32°53' E 151°46'0 0.0
2017-Jan-09 11:28S 32°53' E 151°46'0 0.0
2017-Jan-09 10:31S 32°53' E 151°46'0 0.0
2017-Jan-09 09:31S 32°53' E 151°46'0 0.0
2017-Jan-09 08:31S 32°53' E 151°46'0 0.0
2017-Jan-09 07:31S 32°53' E 151°46'0 0.0
2017-Jan-09 06:31S 32°53' E 151°46'0 0.0
2017-Jan-09 05:31S 32°53' E 151°46'0 0.0
2017-Jan-09 04:31S 32°53' E 151°46'0 0.0
2017-Jan-09 03:31S 32°53' E 151°46'0 0.0
2017-Jan-09 02:31S 32°53' E 151°46'0 0.0
2017-Jan-09 01:31S 32°53' E 151°46'0 0.0
2017-Jan-09 00:31S 32°53' E 151°46'0 0.1
2017-Jan-08 23:33S 32°53' E 151°46'4 4.1
2017-Jan-08 22:33S 32°56' E 151°50'8 8.3
2017-Jan-08 21:33S 33°04' E 151°51'2 2.1
2017-Jan-08 20:33S 33°02' E 151°53'2 2.0
2017-Jan-08 19:33S 33°01' E 151°55'6 5.9
2017-Jan-08 18:33S 32°58' E 152°01'1111.3
2017-Jan-08 17:33S 32°53' E 152°13'8 7.5
2017-Jan-08 16:33S 32°48' E 152°20'1313.2
2017-Jan-08 15:34S 32°39' E 152°31'1413.9
2017-Jan-08 14:33S 32°28' E 152°41'  

Dump ship's entire track history